sensor_id;sensor_type;location;lat;lon;timestamp;P1;durP1;ratioP1;P2;durP2;ratioP2
39264;SDS011;42646;51.910;7.724;2023-04-30T00:00:34;6.97;;;4.97;;
39264;SDS011;42646;51.910;7.724;2023-04-30T00:03:02;8.13;;;4.68;;
39264;SDS011;42646;51.910;7.724;2023-04-30T00:05:32;7.40;;;4.93;;
39264;SDS011;42646;51.910;7.724;2023-04-30T00:08:00;8.88;;;5.07;;
39264;SDS011;42646;51.910;7.724;2023-04-30T00:10:28;8.70;;;5.00;;
39264;SDS011;42646;51.910;7.724;2023-04-30T00:12:56;6.93;;;4.78;;
39264;SDS011;42646;51.910;7.724;2023-04-30T00:15:24;7.88;;;4.97;;
39264;SDS011;42646;51.910;7.724;2023-04-30T00:17:53;7.90;;;4.40;;
39264;SDS011;42646;51.910;7.724;2023-04-30T00:20:21;7.07;;;4.68;;
39264;SDS011;42646;51.910;7.724;2023-04-30T00:22:49;9.05;;;5.07;;
39264;SDS011;42646;51.910;7.724;2023-04-30T00:25:16;8.70;;;5.28;;
39264;SDS011;42646;51.910;7.724;2023-04-30T00:27:46;6.72;;;4.38;;
39264;SDS011;42646;51.910;7.724;2023-04-30T00:30:14;6.55;;;4.72;;
39264;SDS011;42646;51.910;7.724;2023-04-30T00:32:42;8.23;;;5.60;;
39264;SDS011;42646;51.910;7.724;2023-04-30T00:35:12;8.38;;;5.63;;
39264;SDS011;42646;51.910;7.724;2023-04-30T00:37:40;7.60;;;5.32;;
39264;SDS011;42646;51.910;7.724;2023-04-30T00:40:08;6.78;;;5.35;;
39264;SDS011;42646;51.910;7.724;2023-04-30T00:42:37;7.80;;;5.30;;
39264;SDS011;42646;51.910;7.724;2023-04-30T00:45:05;8.70;;;5.22;;
39264;SDS011;42646;51.910;7.724;2023-04-30T00:47:34;7.35;;;5.03;;
39264;SDS011;42646;51.910;7.724;2023-04-30T00:50:02;6.78;;;5.10;;
39264;SDS011;42646;51.910;7.724;2023-04-30T00:52:31;7.85;;;5.07;;
39264;SDS011;42646;51.910;7.724;2023-04-30T00:54:59;9.63;;;5.10;;
39264;SDS011;42646;51.910;7.724;2023-04-30T00:57:26;8.27;;;5.22;;
39264;SDS011;42646;51.910;7.724;2023-04-30T00:59:54;7.57;;;5.35;;
39264;SDS011;42646;51.910;7.724;2023-04-30T01:02:24;8.20;;;5.32;;
39264;SDS011;42646;51.910;7.724;2023-04-30T01:04:52;7.35;;;5.45;;
39264;SDS011;42646;51.910;7.724;2023-04-30T01:07:22;8.70;;;5.72;;
39264;SDS011;42646;51.910;7.724;2023-04-30T01:09:54;7.90;;;5.03;;
39264;SDS011;42646;51.910;7.724;2023-04-30T01:12:25;7.00;;;5.20;;
39264;SDS011;42646;51.910;7.724;2023-04-30T01:15:03;8.05;;;5.35;;
39264;SDS011;42646;51.910;7.724;2023-04-30T01:17:36;7.38;;;5.07;;
39264;SDS011;42646;51.910;7.724;2023-04-30T01:20:08;8.63;;;5.80;;
39264;SDS011;42646;51.910;7.724;2023-04-30T01:22:41;7.25;;;5.22;;
39264;SDS011;42646;51.910;7.724;2023-04-30T01:25:24;7.50;;;4.90;;
39264;SDS011;42646;51.910;7.724;2023-04-30T01:28:05;7.53;;;5.28;;
39264;SDS011;42646;51.910;7.724;2023-04-30T01:30:36;7.50;;;5.30;;
39264;SDS011;42646;51.910;7.724;2023-04-30T01:33:06;9.00;;;5.28;;
39264;SDS011;42646;51.910;7.724;2023-04-30T01:35:38;7.78;;;5.18;;
39264;SDS011;42646;51.910;7.724;2023-04-30T01:38:27;7.78;;;5.03;;
39264;SDS011;42646;51.910;7.724;2023-04-30T01:41:06;8.43;;;5.03;;
39264;SDS011;42646;51.910;7.724;2023-04-30T01:43:39;9.00;;;5.15;;
39264;SDS011;42646;51.910;7.724;2023-04-30T01:46:16;7.80;;;5.55;;
39264;SDS011;42646;51.910;7.724;2023-04-30T01:51:49;8.13;;;5.45;;
39264;SDS011;42646;51.910;7.724;2023-04-30T01:54:30;6.50;;;4.88;;
39264;SDS011;42646;51.910;7.724;2023-04-30T01:57:05;8.48;;;5.20;;
39264;SDS011;42646;51.910;7.724;2023-04-30T01:59:35;7.55;;;5.10;;
39264;SDS011;42646;51.910;7.724;2023-04-30T02:02:05;7.53;;;5.00;;
39264;SDS011;42646;51.910;7.724;2023-04-30T02:04:33;7.95;;;5.05;;
39264;SDS011;42646;51.910;7.724;2023-04-30T02:07:02;7.97;;;5.45;;
39264;SDS011;42646;51.910;7.724;2023-04-30T02:09:54;9.32;;;5.50;;
39264;SDS011;42646;51.910;7.724;2023-04-30T02:12:23;8.40;;;5.50;;
39264;SDS011;42646;51.910;7.724;2023-04-30T02:14:53;7.18;;;4.88;;
39264;SDS011;42646;51.910;7.724;2023-04-30T02:17:26;8.82;;;5.20;;
39264;SDS011;42646;51.910;7.724;2023-04-30T02:19:53;8.02;;;5.38;;
39264;SDS011;42646;51.910;7.724;2023-04-30T02:22:22;8.23;;;5.30;;
39264;SDS011;42646;51.910;7.724;2023-04-30T02:24:50;7.72;;;5.07;;
39264;SDS011;42646;51.910;7.724;2023-04-30T02:27:22;8.38;;;5.20;;
39264;SDS011;42646;51.910;7.724;2023-04-30T02:29:51;7.95;;;5.20;;
39264;SDS011;42646;51.910;7.724;2023-04-30T02:32:22;7.88;;;5.30;;
39264;SDS011;42646;51.910;7.724;2023-04-30T02:34:49;9.55;;;5.50;;
39264;SDS011;42646;51.910;7.724;2023-04-30T02:37:21;6.65;;;4.97;;
39264;SDS011;42646;51.910;7.724;2023-04-30T02:39:49;8.10;;;5.10;;
39264;SDS011;42646;51.910;7.724;2023-04-30T02:42:19;7.90;;;5.65;;
39264;SDS011;42646;51.910;7.724;2023-04-30T02:44:46;8.30;;;5.45;;
39264;SDS011;42646;51.910;7.724;2023-04-30T02:47:14;8.68;;;4.97;;
39264;SDS011;42646;51.910;7.724;2023-04-30T02:49:45;8.43;;;5.50;;
39264;SDS011;42646;51.910;7.724;2023-04-30T02:52:13;8.50;;;4.95;;
39264;SDS011;42646;51.910;7.724;2023-04-30T02:54:41;7.82;;;5.38;;
39264;SDS011;42646;51.910;7.724;2023-04-30T02:57:09;7.80;;;5.57;;
39264;SDS011;42646;51.910;7.724;2023-04-30T02:59:37;10.23;;;5.75;;
39264;SDS011;42646;51.910;7.724;2023-04-30T03:02:05;9.73;;;5.90;;
39264;SDS011;42646;51.910;7.724;2023-04-30T03:04:33;8.98;;;6.05;;
39264;SDS011;42646;51.910;7.724;2023-04-30T03:07:02;10.07;;;6.22;;
39264;SDS011;42646;51.910;7.724;2023-04-30T03:09:33;9.80;;;6.05;;
39264;SDS011;42646;51.910;7.724;2023-04-30T03:12:02;8.55;;;5.82;;
39264;SDS011;42646;51.910;7.724;2023-04-30T03:14:30;8.75;;;5.72;;
39264;SDS011;42646;51.910;7.724;2023-04-30T03:17:00;10.45;;;6.47;;
39264;SDS011;42646;51.910;7.724;2023-04-30T03:19:27;10.18;;;6.38;;
39264;SDS011;42646;51.910;7.724;2023-04-30T03:21:55;9.10;;;6.15;;
39264;SDS011;42646;51.910;7.724;2023-04-30T03:24:27;8.82;;;6.22;;
39264;SDS011;42646;51.910;7.724;2023-04-30T03:26:56;9.35;;;6.10;;
39264;SDS011;42646;51.910;7.724;2023-04-30T03:29:24;10.23;;;6.38;;
39264;SDS011;42646;51.910;7.724;2023-04-30T03:31:54;9.25;;;6.75;;
39264;SDS011;42646;51.910;7.724;2023-04-30T03:34:22;10.40;;;7.40;;
39264;SDS011;42646;51.910;7.724;2023-04-30T03:36:49;8.75;;;6.05;;
39264;SDS011;42646;51.910;7.724;2023-04-30T03:39:17;9.65;;;6.20;;
39264;SDS011;42646;51.910;7.724;2023-04-30T03:41:46;10.43;;;5.88;;
39264;SDS011;42646;51.910;7.724;2023-04-30T03:44:14;7.60;;;5.80;;
39264;SDS011;42646;51.910;7.724;2023-04-30T03:46:45;9.60;;;6.72;;
39264;SDS011;42646;51.910;7.724;2023-04-30T03:49:13;9.48;;;6.57;;
39264;SDS011;42646;51.910;7.724;2023-04-30T03:51:41;10.00;;;6.18;;
39264;SDS011;42646;51.910;7.724;2023-04-30T03:54:09;8.77;;;6.25;;
39264;SDS011;42646;51.910;7.724;2023-04-30T03:56:37;9.43;;;6.85;;
39264;SDS011;42646;51.910;7.724;2023-04-30T03:59:07;8.93;;;5.93;;
39264;SDS011;42646;51.910;7.724;2023-04-30T04:01:38;9.18;;;6.15;;
39264;SDS011;42646;51.910;7.724;2023-04-30T04:04:08;10.02;;;6.68;;
39264;SDS011;42646;51.910;7.724;2023-04-30T04:06:37;11.13;;;6.85;;
39264;SDS011;42646;51.910;7.724;2023-04-30T04:09:06;10.48;;;6.60;;
39264;SDS011;42646;51.910;7.724;2023-04-30T04:11:34;11.13;;;6.85;;
39264;SDS011;42646;51.910;7.724;2023-04-30T04:14:02;10.40;;;6.93;;
39264;SDS011;42646;51.910;7.724;2023-04-30T04:16:31;10.57;;;7.05;;
39264;SDS011;42646;51.910;7.724;2023-04-30T04:19:01;11.50;;;6.88;;
39264;SDS011;42646;51.910;7.724;2023-04-30T04:21:30;11.32;;;6.65;;
39264;SDS011;42646;51.910;7.724;2023-04-30T04:24:02;10.40;;;6.47;;
39264;SDS011;42646;51.910;7.724;2023-04-30T04:26:59;11.77;;;6.95;;
39264;SDS011;42646;51.910;7.724;2023-04-30T04:29:28;10.32;;;6.80;;
39264;SDS011;42646;51.910;7.724;2023-04-30T04:31:57;10.88;;;6.88;;
39264;SDS011;42646;51.910;7.724;2023-04-30T04:34:28;11.18;;;6.75;;
39264;SDS011;42646;51.910;7.724;2023-04-30T04:36:56;10.88;;;7.50;;
39264;SDS011;42646;51.910;7.724;2023-04-30T04:39:24;7.88;;;5.60;;
39264;SDS011;42646;51.910;7.724;2023-04-30T04:41:52;9.45;;;6.28;;
39264;SDS011;42646;51.910;7.724;2023-04-30T04:44:20;8.60;;;5.88;;
39264;SDS011;42646;51.910;7.724;2023-04-30T04:46:48;9.43;;;6.00;;
39264;SDS011;42646;51.910;7.724;2023-04-30T04:49:21;8.90;;;6.30;;
39264;SDS011;42646;51.910;7.724;2023-04-30T04:51:50;8.63;;;6.10;;
39264;SDS011;42646;51.910;7.724;2023-04-30T04:54:21;9.15;;;5.70;;
39264;SDS011;42646;51.910;7.724;2023-04-30T04:56:49;10.38;;;6.13;;
39264;SDS011;42646;51.910;7.724;2023-04-30T04:59:16;8.25;;;6.10;;
39264;SDS011;42646;51.910;7.724;2023-04-30T05:01:45;7.28;;;5.03;;
39264;SDS011;42646;51.910;7.724;2023-04-30T05:04:13;8.45;;;5.47;;
39264;SDS011;42646;51.910;7.724;2023-04-30T05:06:45;8.07;;;5.63;;
39264;SDS011;42646;51.910;7.724;2023-04-30T05:09:19;8.85;;;5.43;;
39264;SDS011;42646;51.910;7.724;2023-04-30T05:11:46;9.43;;;6.10;;
39264;SDS011;42646;51.910;7.724;2023-04-30T05:14:16;8.88;;;5.38;;
39264;SDS011;42646;51.910;7.724;2023-04-30T05:16:46;9.95;;;5.65;;
39264;SDS011;42646;51.910;7.724;2023-04-30T05:19:14;11.10;;;5.82;;
39264;SDS011;42646;51.910;7.724;2023-04-30T05:21:42;9.25;;;5.30;;
39264;SDS011;42646;51.910;7.724;2023-04-30T05:24:11;9.55;;;5.25;;
39264;SDS011;42646;51.910;7.724;2023-04-30T05:26:38;9.80;;;5.80;;
39264;SDS011;42646;51.910;7.724;2023-04-30T05:29:06;11.05;;;5.78;;
39264;SDS011;42646;51.910;7.724;2023-04-30T05:31:36;10.88;;;5.80;;
39264;SDS011;42646;51.910;7.724;2023-04-30T05:34:04;10.13;;;6.00;;
39264;SDS011;42646;51.910;7.724;2023-04-30T05:36:32;9.13;;;4.75;;
39264;SDS011;42646;51.910;7.724;2023-04-30T05:39:01;9.73;;;5.53;;
39264;SDS011;42646;51.910;7.724;2023-04-30T05:41:32;9.30;;;5.03;;
39264;SDS011;42646;51.910;7.724;2023-04-30T05:44:02;9.63;;;5.25;;
39264;SDS011;42646;51.910;7.724;2023-04-30T05:46:34;8.23;;;5.22;;
39264;SDS011;42646;51.910;7.724;2023-04-30T05:49:02;12.20;;;5.68;;
39264;SDS011;42646;51.910;7.724;2023-04-30T05:51:30;10.45;;;5.60;;
39264;SDS011;42646;51.910;7.724;2023-04-30T05:53:57;9.27;;;4.97;;
39264;SDS011;42646;51.910;7.724;2023-04-30T05:56:26;10.10;;;5.47;;
39264;SDS011;42646;51.910;7.724;2023-04-30T05:58:55;8.40;;;5.05;;
39264;SDS011;42646;51.910;7.724;2023-04-30T06:01:23;11.73;;;5.22;;
39264;SDS011;42646;51.910;7.724;2023-04-30T06:03:55;8.63;;;4.72;;
39264;SDS011;42646;51.910;7.724;2023-04-30T06:06:24;8.60;;;4.53;;
39264;SDS011;42646;51.910;7.724;2023-04-30T06:08:52;8.70;;;4.85;;
39264;SDS011;42646;51.910;7.724;2023-04-30T06:11:19;9.88;;;4.90;;
39264;SDS011;42646;51.910;7.724;2023-04-30T06:13:48;7.25;;;4.45;;
39264;SDS011;42646;51.910;7.724;2023-04-30T06:16:17;10.75;;;4.50;;
39264;SDS011;42646;51.910;7.724;2023-04-30T06:18:46;7.93;;;4.00;;
39264;SDS011;42646;51.910;7.724;2023-04-30T06:21:13;7.88;;;4.47;;
39264;SDS011;42646;51.910;7.724;2023-04-30T06:23:42;6.80;;;3.80;;
39264;SDS011;42646;51.910;7.724;2023-04-30T06:26:13;8.95;;;4.38;;
39264;SDS011;42646;51.910;7.724;2023-04-30T06:28:42;6.43;;;3.40;;
39264;SDS011;42646;51.910;7.724;2023-04-30T06:31:36;8.38;;;4.00;;
39264;SDS011;42646;51.910;7.724;2023-04-30T06:34:04;7.90;;;3.83;;
39264;SDS011;42646;51.910;7.724;2023-04-30T06:36:34;8.65;;;4.50;;
39264;SDS011;42646;51.910;7.724;2023-04-30T06:39:02;9.73;;;4.75;;
39264;SDS011;42646;51.910;7.724;2023-04-30T06:41:30;6.80;;;3.72;;
39264;SDS011;42646;51.910;7.724;2023-04-30T06:43:58;9.40;;;3.50;;
39264;SDS011;42646;51.910;7.724;2023-04-30T06:46:25;7.47;;;3.72;;
39264;SDS011;42646;51.910;7.724;2023-04-30T06:48:54;9.93;;;4.00;;
39264;SDS011;42646;51.910;7.724;2023-04-30T06:51:22;6.93;;;3.35;;
39264;SDS011;42646;51.910;7.724;2023-04-30T06:53:50;8.73;;;4.03;;
39264;SDS011;42646;51.910;7.724;2023-04-30T06:56:18;9.02;;;3.85;;
39264;SDS011;42646;51.910;7.724;2023-04-30T06:58:47;9.02;;;4.03;;
39264;SDS011;42646;51.910;7.724;2023-04-30T07:01:15;7.00;;;3.75;;
39264;SDS011;42646;51.910;7.724;2023-04-30T07:03:43;6.88;;;3.88;;
39264;SDS011;42646;51.910;7.724;2023-04-30T07:06:12;7.88;;;3.80;;
39264;SDS011;42646;51.910;7.724;2023-04-30T07:08:40;6.10;;;3.35;;
39264;SDS011;42646;51.910;7.724;2023-04-30T07:11:09;8.02;;;3.28;;
39264;SDS011;42646;51.910;7.724;2023-04-30T07:13:37;5.05;;;3.13;;
39264;SDS011;42646;51.910;7.724;2023-04-30T07:16:05;11.05;;;3.88;;
39264;SDS011;42646;51.910;7.724;2023-04-30T07:18:35;7.78;;;3.70;;
39264;SDS011;42646;51.910;7.724;2023-04-30T07:21:03;7.45;;;2.88;;
39264;SDS011;42646;51.910;7.724;2023-04-30T07:23:33;5.40;;;3.38;;
39264;SDS011;42646;51.910;7.724;2023-04-30T07:26:01;9.60;;;4.10;;
39264;SDS011;42646;51.910;7.724;2023-04-30T07:28:29;7.05;;;3.40;;
39264;SDS011;42646;51.910;7.724;2023-04-30T07:30:56;8.07;;;3.40;;
39264;SDS011;42646;51.910;7.724;2023-04-30T07:33:27;7.80;;;3.25;;
39264;SDS011;42646;51.910;7.724;2023-04-30T07:35:54;6.75;;;3.33;;
39264;SDS011;42646;51.910;7.724;2023-04-30T07:38:24;5.40;;;2.83;;
39264;SDS011;42646;51.910;7.724;2023-04-30T07:40:54;6.50;;;3.35;;
39264;SDS011;42646;51.910;7.724;2023-04-30T07:43:23;5.80;;;3.03;;
39264;SDS011;42646;51.910;7.724;2023-04-30T07:45:52;6.68;;;3.00;;
39264;SDS011;42646;51.910;7.724;2023-04-30T07:48:20;5.60;;;2.63;;
39264;SDS011;42646;51.910;7.724;2023-04-30T07:50:48;6.18;;;2.47;;
39264;SDS011;42646;51.910;7.724;2023-04-30T07:53:18;11.18;;;3.70;;
39264;SDS011;42646;51.910;7.724;2023-04-30T07:55:46;7.20;;;2.95;;
39264;SDS011;42646;51.910;7.724;2023-04-30T07:58:15;7.07;;;2.70;;
39264;SDS011;42646;51.910;7.724;2023-04-30T08:00:49;5.28;;;2.50;;
39264;SDS011;42646;51.910;7.724;2023-04-30T08:03:17;7.45;;;2.55;;
39264;SDS011;42646;51.910;7.724;2023-04-30T08:05:45;5.38;;;2.63;;
39264;SDS011;42646;51.910;7.724;2023-04-30T08:08:13;9.25;;;3.42;;
39264;SDS011;42646;51.910;7.724;2023-04-30T08:10:41;8.57;;;3.15;;
39264;SDS011;42646;51.910;7.724;2023-04-30T08:13:09;6.55;;;2.85;;
39264;SDS011;42646;51.910;7.724;2023-04-30T08:15:38;6.13;;;2.58;;
39264;SDS011;42646;51.910;7.724;2023-04-30T08:18:07;7.55;;;2.75;;
39264;SDS011;42646;51.910;7.724;2023-04-30T08:20:35;5.65;;;2.55;;
39264;SDS011;42646;51.910;7.724;2023-04-30T08:23:05;5.28;;;2.40;;
39264;SDS011;42646;51.910;7.724;2023-04-30T08:25:33;6.22;;;2.45;;
39264;SDS011;42646;51.910;7.724;2023-04-30T08:28:01;12.55;;;3.35;;
39264;SDS011;42646;51.910;7.724;2023-04-30T08:30:29;7.05;;;2.60;;
39264;SDS011;42646;51.910;7.724;2023-04-30T08:32:58;5.43;;;2.47;;
39264;SDS011;42646;51.910;7.724;2023-04-30T08:35:26;7.40;;;2.90;;
39264;SDS011;42646;51.910;7.724;2023-04-30T08:37:56;6.20;;;3.03;;
39264;SDS011;42646;51.910;7.724;2023-04-30T08:40:26;4.85;;;2.72;;
39264;SDS011;42646;51.910;7.724;2023-04-30T08:43:14;7.90;;;3.28;;
39264;SDS011;42646;51.910;7.724;2023-04-30T08:45:44;4.82;;;2.55;;
39264;SDS011;42646;51.910;7.724;2023-04-30T08:48:14;9.25;;;3.47;;
39264;SDS011;42646;51.910;7.724;2023-04-30T08:51:09;7.43;;;3.38;;
39264;SDS011;42646;51.910;7.724;2023-04-30T08:53:37;5.72;;;3.03;;
39264;SDS011;42646;51.910;7.724;2023-04-30T08:56:08;8.82;;;2.80;;
39264;SDS011;42646;51.910;7.724;2023-04-30T08:58:36;8.35;;;3.25;;
39264;SDS011;42646;51.910;7.724;2023-04-30T09:01:05;8.80;;;3.40;;
39264;SDS011;42646;51.910;7.724;2023-04-30T09:03:35;6.40;;;2.83;;
39264;SDS011;42646;51.910;7.724;2023-04-30T09:06:05;7.18;;;3.13;;
39264;SDS011;42646;51.910;7.724;2023-04-30T09:08:42;7.90;;;3.47;;
39264;SDS011;42646;51.910;7.724;2023-04-30T09:11:21;8.63;;;2.97;;
39264;SDS011;42646;51.910;7.724;2023-04-30T09:13:53;7.03;;;2.85;;
39264;SDS011;42646;51.910;7.724;2023-04-30T09:16:25;6.93;;;3.08;;
39264;SDS011;42646;51.910;7.724;2023-04-30T09:18:57;8.55;;;3.47;;
39264;SDS011;42646;51.910;7.724;2023-04-30T09:21:32;8.63;;;3.00;;
39264;SDS011;42646;51.910;7.724;2023-04-30T09:24:02;8.45;;;2.97;;
39264;SDS011;42646;51.910;7.724;2023-04-30T09:26:31;7.07;;;3.00;;
39264;SDS011;42646;51.910;7.724;2023-04-30T09:29:02;7.15;;;3.00;;
39264;SDS011;42646;51.910;7.724;2023-04-30T09:31:34;5.80;;;2.85;;
39264;SDS011;42646;51.910;7.724;2023-04-30T09:34:03;5.35;;;2.65;;
39264;SDS011;42646;51.910;7.724;2023-04-30T09:36:32;6.43;;;2.60;;
39264;SDS011;42646;51.910;7.724;2023-04-30T09:39:07;9.48;;;2.90;;
39264;SDS011;42646;51.910;7.724;2023-04-30T09:41:42;5.95;;;2.90;;
39264;SDS011;42646;51.910;7.724;2023-04-30T09:44:24;6.93;;;3.00;;
39264;SDS011;42646;51.910;7.724;2023-04-30T09:46:53;5.45;;;2.40;;
39264;SDS011;42646;51.910;7.724;2023-04-30T09:49:24;6.60;;;2.88;;
39264;SDS011;42646;51.910;7.724;2023-04-30T09:51:52;7.18;;;2.80;;
39264;SDS011;42646;51.910;7.724;2023-04-30T09:54:21;7.03;;;2.55;;
39264;SDS011;42646;51.910;7.724;2023-04-30T09:56:52;6.25;;;2.30;;
39264;SDS011;42646;51.910;7.724;2023-04-30T09:59:22;3.92;;;2.20;;
39264;SDS011;42646;51.910;7.724;2023-04-30T10:01:57;5.03;;;2.35;;
39264;SDS011;42646;51.910;7.724;2023-04-30T10:04:29;6.78;;;2.50;;
39264;SDS011;42646;51.910;7.724;2023-04-30T10:06:59;6.53;;;2.83;;
39264;SDS011;42646;51.910;7.724;2023-04-30T10:09:34;4.55;;;2.42;;
39264;SDS011;42646;51.910;7.724;2023-04-30T10:12:10;7.35;;;3.00;;
39264;SDS011;42646;51.910;7.724;2023-04-30T10:14:42;7.97;;;3.00;;
39264;SDS011;42646;51.910;7.724;2023-04-30T10:17:15;7.00;;;2.92;;
39264;SDS011;42646;51.910;7.724;2023-04-30T10:19:47;7.03;;;2.88;;
39264;SDS011;42646;51.910;7.724;2023-04-30T10:22:16;6.78;;;2.70;;
39264;SDS011;42646;51.910;7.724;2023-04-30T10:24:44;5.63;;;2.90;;
39264;SDS011;42646;51.910;7.724;2023-04-30T10:27:12;6.95;;;2.70;;
39264;SDS011;42646;51.910;7.724;2023-04-30T10:29:40;7.18;;;3.28;;
39264;SDS011;42646;51.910;7.724;2023-04-30T10:32:09;6.18;;;3.03;;
39264;SDS011;42646;51.910;7.724;2023-04-30T10:34:41;7.10;;;2.88;;
39264;SDS011;42646;51.910;7.724;2023-04-30T10:37:20;8.40;;;2.80;;
39264;SDS011;42646;51.910;7.724;2023-04-30T10:39:54;7.10;;;2.38;;
39264;SDS011;42646;51.910;7.724;2023-04-30T10:42:22;6.95;;;2.90;;
39264;SDS011;42646;51.910;7.724;2023-04-30T10:44:50;6.22;;;2.38;;
39264;SDS011;42646;51.910;7.724;2023-04-30T10:47:18;6.45;;;2.28;;
39264;SDS011;42646;51.910;7.724;2023-04-30T10:50:15;6.50;;;2.42;;
39264;SDS011;42646;51.910;7.724;2023-04-30T10:52:43;5.68;;;2.30;;
39264;SDS011;42646;51.910;7.724;2023-04-30T10:55:15;5.07;;;2.10;;
39264;SDS011;42646;51.910;7.724;2023-04-30T10:57:44;6.50;;;3.05;;
39264;SDS011;42646;51.910;7.724;2023-04-30T11:00:17;6.25;;;2.00;;
39264;SDS011;42646;51.910;7.724;2023-04-30T11:02:46;4.80;;;2.13;;
39264;SDS011;42646;51.910;7.724;2023-04-30T11:05:17;4.60;;;2.10;;
39264;SDS011;42646;51.910;7.724;2023-04-30T11:07:46;5.65;;;2.00;;
39264;SDS011;42646;51.910;7.724;2023-04-30T11:10:20;5.35;;;2.20;;
39264;SDS011;42646;51.910;7.724;2023-04-30T11:12:48;3.92;;;1.90;;
39264;SDS011;42646;51.910;7.724;2023-04-30T11:15:18;4.53;;;1.95;;
39264;SDS011;42646;51.910;7.724;2023-04-30T11:17:48;4.82;;;2.33;;
39264;SDS011;42646;51.910;7.724;2023-04-30T11:20:19;4.43;;;2.20;;
39264;SDS011;42646;51.910;7.724;2023-04-30T11:23:08;5.07;;;2.30;;
39264;SDS011;42646;51.910;7.724;2023-04-30T11:25:54;5.78;;;2.13;;
39264;SDS011;42646;51.910;7.724;2023-04-30T11:28:23;3.47;;;1.92;;
39264;SDS011;42646;51.910;7.724;2023-04-30T11:30:53;5.90;;;2.53;;
39264;SDS011;42646;51.910;7.724;2023-04-30T11:33:22;6.90;;;2.10;;
39264;SDS011;42646;51.910;7.724;2023-04-30T11:35:52;6.18;;;2.40;;
39264;SDS011;42646;51.910;7.724;2023-04-30T11:38:25;4.95;;;2.40;;
39264;SDS011;42646;51.910;7.724;2023-04-30T11:40:55;5.45;;;2.30;;
39264;SDS011;42646;51.910;7.724;2023-04-30T11:43:27;4.28;;;1.95;;
39264;SDS011;42646;51.910;7.724;2023-04-30T11:46:03;3.97;;;1.80;;
39264;SDS011;42646;51.910;7.724;2023-04-30T11:48:33;4.95;;;2.00;;
39264;SDS011;42646;51.910;7.724;2023-04-30T11:51:04;4.32;;;2.00;;
39264;SDS011;42646;51.910;7.724;2023-04-30T11:53:40;5.32;;;2.30;;
39264;SDS011;42646;51.910;7.724;2023-04-30T11:56:08;5.30;;;2.13;;
39264;SDS011;42646;51.910;7.724;2023-04-30T11:58:36;5.22;;;2.13;;
39264;SDS011;42646;51.910;7.724;2023-04-30T12:01:05;4.78;;;1.83;;
39264;SDS011;42646;51.910;7.724;2023-04-30T12:03:39;3.47;;;1.77;;
39264;SDS011;42646;51.910;7.724;2023-04-30T12:06:10;4.22;;;1.90;;
39264;SDS011;42646;51.910;7.724;2023-04-30T12:08:40;4.25;;;1.85;;
39264;SDS011;42646;51.910;7.724;2023-04-30T12:11:18;5.90;;;2.15;;
39264;SDS011;42646;51.910;7.724;2023-04-30T12:13:50;4.82;;;1.95;;
39264;SDS011;42646;51.910;7.724;2023-04-30T12:16:21;4.85;;;1.95;;
39264;SDS011;42646;51.910;7.724;2023-04-30T12:18:50;5.28;;;2.22;;
39264;SDS011;42646;51.910;7.724;2023-04-30T12:21:20;4.93;;;2.03;;
39264;SDS011;42646;51.910;7.724;2023-04-30T12:23:48;5.20;;;2.20;;
39264;SDS011;42646;51.910;7.724;2023-04-30T12:26:16;4.13;;;1.90;;
39264;SDS011;42646;51.910;7.724;2023-04-30T12:28:45;3.05;;;1.70;;
39264;SDS011;42646;51.910;7.724;2023-04-30T12:31:15;5.60;;;2.10;;
39264;SDS011;42646;51.910;7.724;2023-04-30T12:33:52;5.75;;;2.33;;
39264;SDS011;42646;51.910;7.724;2023-04-30T12:36:23;4.18;;;2.35;;
39264;SDS011;42646;51.910;7.724;2023-04-30T12:39:00;5.32;;;2.20;;
39264;SDS011;42646;51.910;7.724;2023-04-30T12:41:29;5.43;;;2.10;;
39264;SDS011;42646;51.910;7.724;2023-04-30T12:44:14;4.05;;;1.80;;
39264;SDS011;42646;51.910;7.724;2023-04-30T12:46:44;3.63;;;1.85;;
39264;SDS011;42646;51.910;7.724;2023-04-30T12:49:21;4.70;;;1.95;;
39264;SDS011;42646;51.910;7.724;2023-04-30T12:51:54;4.03;;;2.03;;
39264;SDS011;42646;51.910;7.724;2023-04-30T12:54:25;4.50;;;1.90;;
39264;SDS011;42646;51.910;7.724;2023-04-30T12:56:56;5.10;;;1.80;;
39264;SDS011;42646;51.910;7.724;2023-04-30T12:59:25;4.45;;;1.70;;
39264;SDS011;42646;51.910;7.724;2023-04-30T13:01:54;6.45;;;1.90;;
39264;SDS011;42646;51.910;7.724;2023-04-30T13:04:23;4.40;;;1.90;;
39264;SDS011;42646;51.910;7.724;2023-04-30T13:06:53;4.93;;;1.80;;
39264;SDS011;42646;51.910;7.724;2023-04-30T13:09:21;4.30;;;1.77;;
39264;SDS011;42646;51.910;7.724;2023-04-30T13:11:48;3.58;;;1.70;;
39264;SDS011;42646;51.910;7.724;2023-04-30T13:14:16;4.00;;;1.77;;
39264;SDS011;42646;51.910;7.724;2023-04-30T13:16:44;4.75;;;1.95;;
39264;SDS011;42646;51.910;7.724;2023-04-30T13:19:11;5.30;;;1.75;;
39264;SDS011;42646;51.910;7.724;2023-04-30T13:21:39;4.13;;;1.98;;
39264;SDS011;42646;51.910;7.724;2023-04-30T13:24:08;4.10;;;1.65;;
39264;SDS011;42646;51.910;7.724;2023-04-30T13:26:36;5.43;;;1.73;;
39264;SDS011;42646;51.910;7.724;2023-04-30T13:29:04;4.22;;;1.80;;
39264;SDS011;42646;51.910;7.724;2023-04-30T13:31:34;4.70;;;1.50;;
39264;SDS011;42646;51.910;7.724;2023-04-30T13:34:04;3.28;;;1.48;;
39264;SDS011;42646;51.910;7.724;2023-04-30T13:36:32;4.03;;;1.60;;
39264;SDS011;42646;51.910;7.724;2023-04-30T13:39:00;4.55;;;1.55;;
39264;SDS011;42646;51.910;7.724;2023-04-30T13:41:29;3.63;;;1.30;;
39264;SDS011;42646;51.910;7.724;2023-04-30T13:43:57;3.90;;;1.80;;
39264;SDS011;42646;51.910;7.724;2023-04-30T13:46:26;4.07;;;1.50;;
39264;SDS011;42646;51.910;7.724;2023-04-30T13:48:54;3.30;;;1.60;;
39264;SDS011;42646;51.910;7.724;2023-04-30T13:51:22;5.18;;;1.75;;
39264;SDS011;42646;51.910;7.724;2023-04-30T13:53:49;3.85;;;1.63;;
39264;SDS011;42646;51.910;7.724;2023-04-30T13:56:17;5.07;;;2.00;;
39264;SDS011;42646;51.910;7.724;2023-04-30T13:58:47;5.53;;;1.70;;
39264;SDS011;42646;51.910;7.724;2023-04-30T14:01:15;4.25;;;1.67;;
39264;SDS011;42646;51.910;7.724;2023-04-30T14:03:43;4.10;;;1.80;;
39264;SDS011;42646;51.910;7.724;2023-04-30T14:06:13;4.38;;;1.83;;
39264;SDS011;42646;51.910;7.724;2023-04-30T14:08:41;7.32;;;2.22;;
39264;SDS011;42646;51.910;7.724;2023-04-30T14:11:09;4.13;;;1.60;;
39264;SDS011;42646;51.910;7.724;2023-04-30T14:13:37;4.22;;;1.30;;
39264;SDS011;42646;51.910;7.724;2023-04-30T14:16:08;4.18;;;1.80;;
39264;SDS011;42646;51.910;7.724;2023-04-30T14:18:37;3.25;;;1.52;;
39264;SDS011;42646;51.910;7.724;2023-04-30T14:21:05;4.15;;;1.50;;
39264;SDS011;42646;51.910;7.724;2023-04-30T14:23:32;5.10;;;1.60;;
39264;SDS011;42646;51.910;7.724;2023-04-30T14:26:00;3.08;;;1.23;;
39264;SDS011;42646;51.910;7.724;2023-04-30T14:28:28;4.32;;;1.40;;
39264;SDS011;42646;51.910;7.724;2023-04-30T14:30:56;3.10;;;1.40;;
39264;SDS011;42646;51.910;7.724;2023-04-30T14:33:25;3.05;;;1.40;;
39264;SDS011;42646;51.910;7.724;2023-04-30T14:35:53;3.42;;;1.50;;
39264;SDS011;42646;51.910;7.724;2023-04-30T14:38:21;3.75;;;1.50;;
39264;SDS011;42646;51.910;7.724;2023-04-30T14:40:49;3.53;;;1.40;;
39264;SDS011;42646;51.910;7.724;2023-04-30T14:43:17;2.83;;;1.30;;
39264;SDS011;42646;51.910;7.724;2023-04-30T14:45:45;3.15;;;1.40;;
39264;SDS011;42646;51.910;7.724;2023-04-30T14:48:13;3.90;;;1.52;;
39264;SDS011;42646;51.910;7.724;2023-04-30T14:50:43;4.70;;;1.60;;
39264;SDS011;42646;51.910;7.724;2023-04-30T14:53:11;3.88;;;1.70;;
39264;SDS011;42646;51.910;7.724;2023-04-30T14:55:39;4.82;;;1.70;;
39264;SDS011;42646;51.910;7.724;2023-04-30T14:58:06;4.35;;;1.65;;
39264;SDS011;42646;51.910;7.724;2023-04-30T15:00:38;5.30;;;1.70;;
39264;SDS011;42646;51.910;7.724;2023-04-30T15:03:06;3.95;;;1.40;;
39264;SDS011;42646;51.910;7.724;2023-04-30T15:05:34;3.88;;;1.63;;